sensor_id;sensor_type;location;lat;lon;timestamp;P1;P2;P0
40371;PMS5003;28564;53.346;-6.554;2023-11-19T00:01:00;1;1;
40371;PMS5003;28564;53.346;-6.554;2023-11-19T00:03:26;4;2;
40371;PMS5003;28564;53.346;-6.554;2023-11-19T00:05:54;6;3;
40371;PMS5003;28564;53.346;-6.554;2023-11-19T00:08:21;3;3;
40371;PMS5003;28564;53.346;-6.554;2023-11-19T00:10:48;2;1;
40371;PMS5003;28564;53.346;-6.554;2023-11-19T00:13:15;3;3;
40371;PMS5003;28564;53.346;-6.554;2023-11-19T00:15:42;6;5;
40371;PMS5003;28564;53.346;-6.554;2023-11-19T00:18:09;6;3;
40371;PMS5003;28564;53.346;-6.554;2023-11-19T00:20:36;8;3;
40371;PMS5003;28564;53.346;-6.554;2023-11-19T00:23:04;7;3;
40371;PMS5003;28564;53.346;-6.554;2023-11-19T00:25:31;5;5;
40371;PMS5003;28564;53.346;-6.554;2023-11-19T00:27:58;4;3;
40371;PMS5003;28564;53.346;-6.554;2023-11-19T00:30:25;5;3;
40371;PMS5003;28564;53.346;-6.554;2023-11-19T00:32:52;3;3;
40371;PMS5003;28564;53.346;-6.554;2023-11-19T00:35:19;4;4;
40371;PMS5003;28564;53.346;-6.554;2023-11-19T00:37:46;13;5;
40371;PMS5003;28564;53.346;-6.554;2023-11-19T00:40:14;3;3;
40371;PMS5003;28564;53.346;-6.554;2023-11-19T00:42:41;4;2;
40371;PMS5003;28564;53.346;-6.554;2023-11-19T00:45:08;8;4;
40371;PMS5003;28564;53.346;-6.554;2023-11-19T00:47:36;8;7;
40371;PMS5003;28564;53.346;-6.554;2023-11-19T00:50:03;13;5;
40371;PMS5003;28564;53.346;-6.554;2023-11-19T00:52:31;3;3;
40371;PMS5003;28564;53.346;-6.554;2023-11-19T00:54:58;6;3;
40371;PMS5003;28564;53.346;-6.554;2023-11-19T00:57:25;9;5;
40371;PMS5003;28564;53.346;-6.554;2023-11-19T00:59:52;7;4;
40371;PMS5003;28564;53.346;-6.554;2023-11-19T01:02:19;9;3;
40371;PMS5003;28564;53.346;-6.554;2023-11-19T01:04:47;5;1;
40371;PMS5003;28564;53.346;-6.554;2023-11-19T01:07:14;8;3;
40371;PMS5003;28564;53.346;-6.554;2023-11-19T01:09:41;10;6;
40371;PMS5003;28564;53.346;-6.554;2023-11-19T01:12:09;8;3;
40371;PMS5003;28564;53.346;-6.554;2023-11-19T01:14:37;3;2;
40371;PMS5003;28564;53.346;-6.554;2023-11-19T01:17:04;8;3;
40371;PMS5003;28564;53.346;-6.554;2023-11-19T01:19:31;2;2;
40371;PMS5003;28564;53.346;-6.554;2023-11-19T01:21:58;4;3;
40371;PMS5003;28564;53.346;-6.554;2023-11-19T01:24:26;4;2;
40371;PMS5003;28564;53.346;-6.554;2023-11-19T01:26:52;4;3;
40371;PMS5003;28564;53.346;-6.554;2023-11-19T01:29:20;7;4;
40371;PMS5003;28564;53.346;-6.554;2023-11-19T01:31:47;2;2;
40371;PMS5003;28564;53.346;-6.554;2023-11-19T01:34:14;3;2;
40371;PMS5003;28564;53.346;-6.554;2023-11-19T01:36:41;2;1;
40371;PMS5003;28564;53.346;-6.554;2023-11-19T01:39:08;1;1;
40371;PMS5003;28564;53.346;-6.554;2023-11-19T01:41:35;6;1;
40371;PMS5003;28564;53.346;-6.554;2023-11-19T01:44:03;3;3;
40371;PMS5003;28564;53.346;-6.554;2023-11-19T01:46:31;2;1;
40371;PMS5003;28564;53.346;-6.554;2023-11-19T01:49:00;3;2;
40371;PMS5003;28564;53.346;-6.554;2023-11-19T01:51:28;4;3;
40371;PMS5003;28564;53.346;-6.554;2023-11-19T01:53:55;4;3;
40371;PMS5003;28564;53.346;-6.554;2023-11-19T01:56:24;1;1;
40371;PMS5003;28564;53.346;-6.554;2023-11-19T01:58:53;7;3;
40371;PMS5003;28564;53.346;-6.554;2023-11-19T02:01:21;3;2;
40371;PMS5003;28564;53.346;-6.554;2023-11-19T02:03:48;3;1;
40371;PMS5003;28564;53.346;-6.554;2023-11-19T02:06:15;4;2;
40371;PMS5003;28564;53.346;-6.554;2023-11-19T02:08:43;2;1;
40371;PMS5003;28564;53.346;-6.554;2023-11-19T02:11:11;4;2;
40371;PMS5003;28564;53.346;-6.554;2023-11-19T02:13:39;3;3;
40371;PMS5003;28564;53.346;-6.554;2023-11-19T02:16:07;3;2;
40371;PMS5003;28564;53.346;-6.554;2023-11-19T02:18:34;2;2;
40371;PMS5003;28564;53.346;-6.554;2023-11-19T02:21:07;5;2;
40371;PMS5003;28564;53.346;-6.554;2023-11-19T02:23:34;2;2;
40371;PMS5003;28564;53.346;-6.554;2023-11-19T02:26:03;4;4;
40371;PMS5003;28564;53.346;-6.554;2023-11-19T02:28:39;5;1;
40371;PMS5003;28564;53.346;-6.554;2023-11-19T02:31:08;4;2;
40371;PMS5003;28564;53.346;-6.554;2023-11-19T02:33:35;3;0;
40371;PMS5003;28564;53.346;-6.554;2023-11-19T02:36:02;2;1;
40371;PMS5003;28564;53.346;-6.554;2023-11-19T02:38:30;4;2;
40371;PMS5003;28564;53.346;-6.554;2023-11-19T02:40:57;6;3;
40371;PMS5003;28564;53.346;-6.554;2023-11-19T02:43:25;2;1;
40371;PMS5003;28564;53.346;-6.554;2023-11-19T02:45:52;3;2;
40371;PMS5003;28564;53.346;-6.554;2023-11-19T02:48:19;2;2;
40371;PMS5003;28564;53.346;-6.554;2023-11-19T02:50:46;1;1;
40371;PMS5003;28564;53.346;-6.554;2023-11-19T02:53:13;4;2;
40371;PMS5003;28564;53.346;-6.554;2023-11-19T02:55:40;1;1;
40371;PMS5003;28564;53.346;-6.554;2023-11-19T02:58:07;3;1;
40371;PMS5003;28564;53.346;-6.554;2023-11-19T03:00:34;3;3;
40371;PMS5003;28564;53.346;-6.554;2023-11-19T03:03:02;3;2;
40371;PMS5003;28564;53.346;-6.554;2023-11-19T03:05:29;3;1;
40371;PMS5003;28564;53.346;-6.554;2023-11-19T03:07:56;3;1;
40371;PMS5003;28564;53.346;-6.554;2023-11-19T03:10:23;4;2;
40371;PMS5003;28564;53.346;-6.554;2023-11-19T03:12:51;2;2;
40371;PMS5003;28564;53.346;-6.554;2023-11-19T03:15:18;3;3;
40371;PMS5003;28564;53.346;-6.554;2023-11-19T03:17:45;3;2;
40371;PMS5003;28564;53.346;-6.554;2023-11-19T03:20:12;4;3;
40371;PMS5003;28564;53.346;-6.554;2023-11-19T03:22:40;5;2;
40371;PMS5003;28564;53.346;-6.554;2023-11-19T03:25:08;7;1;
40371;PMS5003;28564;53.346;-6.554;2023-11-19T03:27:35;2;2;
40371;PMS5003;28564;53.346;-6.554;2023-11-19T03:30:02;8;4;
40371;PMS5003;28564;53.346;-6.554;2023-11-19T03:32:30;2;1;
40371;PMS5003;28564;53.346;-6.554;2023-11-19T03:34:58;4;2;
40371;PMS5003;28564;53.346;-6.554;2023-11-19T03:37:25;2;1;
40371;PMS5003;28564;53.346;-6.554;2023-11-19T03:39:53;2;1;
40371;PMS5003;28564;53.346;-6.554;2023-11-19T03:42:21;3;2;
40371;PMS5003;28564;53.346;-6.554;2023-11-19T03:44:48;2;2;
40371;PMS5003;28564;53.346;-6.554;2023-11-19T03:47:15;2;2;
40371;PMS5003;28564;53.346;-6.554;2023-11-19T03:49:42;1;1;
40371;PMS5003;28564;53.346;-6.554;2023-11-19T03:52:13;5;2;
40371;PMS5003;28564;53.346;-6.554;2023-11-19T03:54:41;2;1;
40371;PMS5003;28564;53.346;-6.554;2023-11-19T03:57:08;2;2;
40371;PMS5003;28564;53.346;-6.554;2023-11-19T03:59:35;2;2;
40371;PMS5003;28564;53.346;-6.554;2023-11-19T04:02:02;2;1;
40371;PMS5003;28564;53.346;-6.554;2023-11-19T04:04:29;3;2;
40371;PMS5003;28564;53.346;-6.554;2023-11-19T04:06:56;3;1;
40371;PMS5003;28564;53.346;-6.554;2023-11-19T04:09:24;4;1;
40371;PMS5003;28564;53.346;-6.554;2023-11-19T04:11:51;2;2;
40371;PMS5003;28564;53.346;-6.554;2023-11-19T04:14:18;6;1;
40371;PMS5003;28564;53.346;-6.554;2023-11-19T04:16:45;1;1;
40371;PMS5003;28564;53.346;-6.554;2023-11-19T04:19:12;4;1;
40371;PMS5003;28564;53.346;-6.554;2023-11-19T04:21:39;2;2;
40371;PMS5003;28564;53.346;-6.554;2023-11-19T04:24:08;2;1;
40371;PMS5003;28564;53.346;-6.554;2023-11-19T04:26:35;8;2;
40371;PMS5003;28564;53.346;-6.554;2023-11-19T04:29:05;1;1;
40371;PMS5003;28564;53.346;-6.554;2023-11-19T04:31:33;3;1;
40371;PMS5003;28564;53.346;-6.554;2023-11-19T04:34:00;2;2;
40371;PMS5003;28564;53.346;-6.554;2023-11-19T04:36:27;1;1;
40371;PMS5003;28564;53.346;-6.554;2023-11-19T04:38:54;3;1;
40371;PMS5003;28564;53.346;-6.554;2023-11-19T04:41:21;7;1;
40371;PMS5003;28564;53.346;-6.554;2023-11-19T04:43:48;1;1;
40371;PMS5003;28564;53.346;-6.554;2023-11-19T04:46:15;0;0;
40371;PMS5003;28564;53.346;-6.554;2023-11-19T04:48:42;2;0;
40371;PMS5003;28564;53.346;-6.554;2023-11-19T04:51:09;5;2;
40371;PMS5003;28564;53.346;-6.554;2023-11-19T04:53:37;3;1;
40371;PMS5003;28564;53.346;-6.554;2023-11-19T04:56:07;3;1;
40371;PMS5003;28564;53.346;-6.554;2023-11-19T04:58:34;4;1;
40371;PMS5003;28564;53.346;-6.554;2023-11-19T05:01:01;2;2;
40371;PMS5003;28564;53.346;-6.554;2023-11-19T05:03:29;4;2;
40371;PMS5003;28564;53.346;-6.554;2023-11-19T05:05:57;0;0;
40371;PMS5003;28564;53.346;-6.554;2023-11-19T05:08:24;1;1;
40371;PMS5003;28564;53.346;-6.554;2023-11-19T05:10:51;4;1;
40371;PMS5003;28564;53.346;-6.554;2023-11-19T05:13:18;3;1;
40371;PMS5003;28564;53.346;-6.554;2023-11-19T05:15:45;1;1;
40371;PMS5003;28564;53.346;-6.554;2023-11-19T05:18:12;1;1;
40371;PMS5003;28564;53.346;-6.554;2023-11-19T05:20:39;3;2;
40371;PMS5003;28564;53.346;-6.554;2023-11-19T05:23:06;1;1;
40371;PMS5003;28564;53.346;-6.554;2023-11-19T05:25:34;1;1;
40371;PMS5003;28564;53.346;-6.554;2023-11-19T05:28:02;3;0;
40371;PMS5003;28564;53.346;-6.554;2023-11-19T05:30:30;2;1;
40371;PMS5003;28564;53.346;-6.554;2023-11-19T05:32:57;3;1;
40371;PMS5003;28564;53.346;-6.554;2023-11-19T05:35:25;3;2;
40371;PMS5003;28564;53.346;-6.554;2023-11-19T05:37:52;1;1;
40371;PMS5003;28564;53.346;-6.554;2023-11-19T05:40:19;4;3;
40371;PMS5003;28564;53.346;-6.554;2023-11-19T05:42:46;2;2;
40371;PMS5003;28564;53.346;-6.554;2023-11-19T05:45:13;1;1;
40371;PMS5003;28564;53.346;-6.554;2023-11-19T05:47:41;1;0;
40371;PMS5003;28564;53.346;-6.554;2023-11-19T05:50:09;2;0;
40371;PMS5003;28564;53.346;-6.554;2023-11-19T05:52:37;3;0;
40371;PMS5003;28564;53.346;-6.554;2023-11-19T05:55:04;3;0;
40371;PMS5003;28564;53.346;-6.554;2023-11-19T05:57:32;2;2;
40371;PMS5003;28564;53.346;-6.554;2023-11-19T05:59:59;1;1;
40371;PMS5003;28564;53.346;-6.554;2023-11-19T06:02:26;1;1;
40371;PMS5003;28564;53.346;-6.554;2023-11-19T06:04:53;1;1;
40371;PMS5003;28564;53.346;-6.554;2023-11-19T06:07:20;0;0;
40371;PMS5003;28564;53.346;-6.554;2023-11-19T06:09:47;2;1;
40371;PMS5003;28564;53.346;-6.554;2023-11-19T06:12:15;0;0;
40371;PMS5003;28564;53.346;-6.554;2023-11-19T06:14:42;2;0;
40371;PMS5003;28564;53.346;-6.554;2023-11-19T06:17:09;0;0;
40371;PMS5003;28564;53.346;-6.554;2023-11-19T06:19:36;2;0;
40371;PMS5003;28564;53.346;-6.554;2023-11-19T06:22:03;1;1;
40371;PMS5003;28564;53.346;-6.554;2023-11-19T06:24:31;5;0;
40371;PMS5003;28564;53.346;-6.554;2023-11-19T06:26:58;0;0;
40371;PMS5003;28564;53.346;-6.554;2023-11-19T06:29:25;0;0;
40371;PMS5003;28564;53.346;-6.554;2023-11-19T06:31:52;2;1;
40371;PMS5003;28564;53.346;-6.554;2023-11-19T06:34:19;0;0;
40371;PMS5003;28564;53.346;-6.554;2023-11-19T06:36:46;2;1;
40371;PMS5003;28564;53.346;-6.554;2023-11-19T06:39:13;1;1;
40371;PMS5003;28564;53.346;-6.554;2023-11-19T06:41:44;2;1;
40371;PMS5003;28564;53.346;-6.554;2023-11-19T06:44:11;3;1;
40371;PMS5003;28564;53.346;-6.554;2023-11-19T06:46:39;2;1;
40371;PMS5003;28564;53.346;-6.554;2023-11-19T06:49:07;2;1;
40371;PMS5003;28564;53.346;-6.554;2023-11-19T06:51:35;2;1;
40371;PMS5003;28564;53.346;-6.554;2023-11-19T06:54:06;1;1;
40371;PMS5003;28564;53.346;-6.554;2023-11-19T06:56:34;3;1;
40371;PMS5003;28564;53.346;-6.554;2023-11-19T06:59:01;1;1;
40371;PMS5003;28564;53.346;-6.554;2023-11-19T07:01:28;1;1;
40371;PMS5003;28564;53.346;-6.554;2023-11-19T07:04:00;0;0;
40371;PMS5003;28564;53.346;-6.554;2023-11-19T07:06:27;2;1;
40371;PMS5003;28564;53.346;-6.554;2023-11-19T07:08:55;4;1;
40371;PMS5003;28564;53.346;-6.554;2023-11-19T07:11:22;1;1;
40371;PMS5003;28564;53.346;-6.554;2023-11-19T07:13:49;0;0;
40371;PMS5003;28564;53.346;-6.554;2023-11-19T07:16:16;2;1;
40371;PMS5003;28564;53.346;-6.554;2023-11-19T07:18:43;1;0;
40371;PMS5003;28564;53.346;-6.554;2023-11-19T07:21:10;2;0;
40371;PMS5003;28564;53.346;-6.554;2023-11-19T07:23:37;1;1;
40371;PMS5003;28564;53.346;-6.554;2023-11-19T07:26:05;0;0;
40371;PMS5003;28564;53.346;-6.554;2023-11-19T07:28:33;3;0;
40371;PMS5003;28564;53.346;-6.554;2023-11-19T07:31:00;0;0;
40371;PMS5003;28564;53.346;-6.554;2023-11-19T07:33:27;0;0;
40371;PMS5003;28564;53.346;-6.554;2023-11-19T07:35:55;0;0;
40371;PMS5003;28564;53.346;-6.554;2023-11-19T07:38:22;0;0;
40371;PMS5003;28564;53.346;-6.554;2023-11-19T07:40:49;0;0;
40371;PMS5003;28564;53.346;-6.554;2023-11-19T07:43:16;3;1;
40371;PMS5003;28564;53.346;-6.554;2023-11-19T07:45:43;0;0;
40371;PMS5003;28564;53.346;-6.554;2023-11-19T07:48:11;0;0;
40371;PMS5003;28564;53.346;-6.554;2023-11-19T07:50:39;0;0;
40371;PMS5003;28564;53.346;-6.554;2023-11-19T07:53:06;0;0;
40371;PMS5003;28564;53.346;-6.554;2023-11-19T07:55:33;0;0;
40371;PMS5003;28564;53.346;-6.554;2023-11-19T07:58:00;1;0;
40371;PMS5003;28564;53.346;-6.554;2023-11-19T08:00:27;0;0;
40371;PMS5003;28564;53.346;-6.554;2023-11-19T08:02:54;3;1;
40371;PMS5003;28564;53.346;-6.554;2023-11-19T08:05:21;0;0;
40371;PMS5003;28564;53.346;-6.554;2023-11-19T08:07:48;0;0;
40371;PMS5003;28564;53.346;-6.554;2023-11-19T08:10:15;0;0;
40371;PMS5003;28564;53.346;-6.554;2023-11-19T08:12:43;0;0;
40371;PMS5003;28564;53.346;-6.554;2023-11-19T08:15:10;0;0;
40371;PMS5003;28564;53.346;-6.554;2023-11-19T08:17:38;0;0;
40371;PMS5003;28564;53.346;-6.554;2023-11-19T08:20:05;0;0;
40371;PMS5003;28564;53.346;-6.554;2023-11-19T08:22:34;0;0;
40371;PMS5003;28564;53.346;-6.554;2023-11-19T08:25:01;0;0;
40371;PMS5003;28564;53.346;-6.554;2023-11-19T08:27:28;0;0;
40371;PMS5003;28564;53.346;-6.554;2023-11-19T08:29:55;0;0;
40371;PMS5003;28564;53.346;-6.554;2023-11-19T08:32:22;1;0;
40371;PMS5003;28564;53.346;-6.554;2023-11-19T08:34:49;1;0;
40371;PMS5003;28564;53.346;-6.554;2023-11-19T08:37:18;0;0;
40371;PMS5003;28564;53.346;-6.554;2023-11-19T08:39:44;0;0;
40371;PMS5003;28564;53.346;-6.554;2023-11-19T08:42:12;0;0;
40371;PMS5003;28564;53.346;-6.554;2023-11-19T08:44:39;0;0;
40371;PMS5003;28564;53.346;-6.554;2023-11-19T08:47:06;0;0;
40371;PMS5003;28564;53.346;-6.554;2023-11-19T08:49:33;0;0;
40371;PMS5003;28564;53.346;-6.554;2023-11-19T08:52:00;2;0;
40371;PMS5003;28564;53.346;-6.554;2023-11-19T08:54:27;0;0;
40371;PMS5003;28564;53.346;-6.554;2023-11-19T08:56:54;0;0;
40371;PMS5003;28564;53.346;-6.554;2023-11-19T08:59:21;0;0;
40371;PMS5003;28564;53.346;-6.554;2023-11-19T09:01:48;0;0;
40371;PMS5003;28564;53.346;-6.554;2023-11-19T09:04:16;1;0;
40371;PMS5003;28564;53.346;-6.554;2023-11-19T09:06:43;0;0;
40371;PMS5003;28564;53.346;-6.554;2023-11-19T09:09:10;0;0;
40371;PMS5003;28564;53.346;-6.554;2023-11-19T09:11:37;0;0;
40371;PMS5003;28564;53.346;-6.554;2023-11-19T09:14:04;0;0;
40371;PMS5003;28564;53.346;-6.554;2023-11-19T09:16:31;0;0;
40371;PMS5003;28564;53.346;-6.554;2023-11-19T09:18:58;1;0;
40371;PMS5003;28564;53.346;-6.554;2023-11-19T09:21:26;0;0;
40371;PMS5003;28564;53.346;-6.554;2023-11-19T09:23:53;1;0;
40371;PMS5003;28564;53.346;-6.554;2023-11-19T09:26:20;0;0;
40371;PMS5003;28564;53.346;-6.554;2023-11-19T09:28:47;0;0;
40371;PMS5003;28564;53.346;-6.554;2023-11-19T09:31:15;0;0;
40371;PMS5003;28564;53.346;-6.554;2023-11-19T09:33:43;0;0;
40371;PMS5003;28564;53.346;-6.554;2023-11-19T09:36:11;0;0;
40371;PMS5003;28564;53.346;-6.554;2023-11-19T09:38:39;0;0;
40371;PMS5003;28564;53.346;-6.554;2023-11-19T09:41:06;0;0;
40371;PMS5003;28564;53.346;-6.554;2023-11-19T09:43:34;0;0;
40371;PMS5003;28564;53.346;-6.554;2023-11-19T09:46:03;0;0;
40371;PMS5003;28564;53.346;-6.554;2023-11-19T09:48:33;0;0;
40371;PMS5003;28564;53.346;-6.554;2023-11-19T09:51:03;0;0;
40371;PMS5003;28564;53.346;-6.554;2023-11-19T09:53:31;0;0;
40371;PMS5003;28564;53.346;-6.554;2023-11-19T09:56:00;0;0;
40371;PMS5003;28564;53.346;-6.554;2023-11-19T09:58:28;1;1;
40371;PMS5003;28564;53.346;-6.554;2023-11-19T10:03:54;0;0;
40371;PMS5003;28564;53.346;-6.554;2023-11-19T10:06:22;0;0;
40371;PMS5003;28564;53.346;-6.554;2023-11-19T10:08:51;0;0;
40371;PMS5003;28564;53.346;-6.554;2023-11-19T10:11:18;0;0;
40371;PMS5003;28564;53.346;-6.554;2023-11-19T10:13:45;0;0;
40371;PMS5003;28564;53.346;-6.554;2023-11-19T10:16:12;0;0;
40371;PMS5003;28564;53.346;-6.554;2023-11-19T10:18:43;1;0;
40371;PMS5003;28564;53.346;-6.554;2023-11-19T10:21:12;0;0;
40371;PMS5003;28564;53.346;-6.554;2023-11-19T10:23:55;0;0;
40371;PMS5003;28564;53.346;-6.554;2023-11-19T10:26:23;1;1;
40371;PMS5003;28564;53.346;-6.554;2023-11-19T10:28:50;2;0;
40371;PMS5003;28564;53.346;-6.554;2023-11-19T10:31:18;0;0;
40371;PMS5003;28564;53.346;-6.554;2023-11-19T10:33:46;0;0;
40371;PMS5003;28564;53.346;-6.554;2023-11-19T10:36:14;1;1;
40371;PMS5003;28564;53.346;-6.554;2023-11-19T10:38:41;0;0;
40371;PMS5003;28564;53.346;-6.554;2023-11-19T10:41:26;0;0;
40371;PMS5003;28564;53.346;-6.554;2023-11-19T10:43:54;0;0;
40371;PMS5003;28564;53.346;-6.554;2023-11-19T10:46:21;1;1;
40371;PMS5003;28564;53.346;-6.554;2023-11-19T10:48:48;0;0;
40371;PMS5003;28564;53.346;-6.554;2023-11-19T10:51:18;0;0;
40371;PMS5003;28564;53.346;-6.554;2023-11-19T10:53:46;0;0;
40371;PMS5003;28564;53.346;-6.554;2023-11-19T10:56:16;0;0;
40371;PMS5003;28564;53.346;-6.554;2023-11-19T10:58:47;0;0;
40371;PMS5003;28564;53.346;-6.554;2023-11-19T11:01:22;0;0;
40371;PMS5003;28564;53.346;-6.554;2023-11-19T11:03:53;1;1;
40371;PMS5003;28564;53.346;-6.554;2023-11-19T11:06:22;0;0;
40371;PMS5003;28564;53.346;-6.554;2023-11-19T11:08:50;0;0;
40371;PMS5003;28564;53.346;-6.554;2023-11-19T11:11:17;1;0;
40371;PMS5003;28564;53.346;-6.554;2023-11-19T11:13:45;0;0;
40371;PMS5003;28564;53.346;-6.554;2023-11-19T11:16:16;0;0;
40371;PMS5003;28564;53.346;-6.554;2023-11-19T11:18:45;0;0;
40371;PMS5003;28564;53.346;-6.554;2023-11-19T11:21:13;1;1;
40371;PMS5003;28564;53.346;-6.554;2023-11-19T11:24:20;0;0;
40371;PMS5003;28564;53.346;-6.554;2023-11-19T11:27:05;0;0;
40371;PMS5003;28564;53.346;-6.554;2023-11-19T11:29:51;0;0;
40371;PMS5003;28564;53.346;-6.554;2023-11-19T11:32:29;0;0;
40371;PMS5003;28564;53.346;-6.554;2023-11-19T11:35:10;0;0;
40371;PMS5003;28564;53.346;-6.554;2023-11-19T11:37:50;0;0;
40371;PMS5003;28564;53.346;-6.554;2023-11-19T11:40:26;1;0;
40371;PMS5003;28564;53.346;-6.554;2023-11-19T11:42:53;0;0;
40371;PMS5003;28564;53.346;-6.554;2023-11-19T11:45:34;0;0;
40371;PMS5003;28564;53.346;-6.554;2023-11-19T11:48:04;0;0;
40371;PMS5003;28564;53.346;-6.554;2023-11-19T11:50:35;0;0;
40371;PMS5003;28564;53.346;-6.554;2023-11-19T11:53:13;0;0;
40371;PMS5003;28564;53.346;-6.554;2023-11-19T11:55:52;3;1;
40371;PMS5003;28564;53.346;-6.554;2023-11-19T11:58:22;1;0;
40371;PMS5003;28564;53.346;-6.554;2023-11-19T12:00:53;0;0;
40371;PMS5003;28564;53.346;-6.554;2023-11-19T12:03:21;1;1;
40371;PMS5003;28564;53.346;-6.554;2023-11-19T12:05:49;0;0;
40371;PMS5003;28564;53.346;-6.554;2023-11-19T12:08:18;0;0;
40371;PMS5003;28564;53.346;-6.554;2023-11-19T12:10:56;1;1;
40371;PMS5003;28564;53.346;-6.554;2023-11-19T12:13:42;1;0;
40371;PMS5003;28564;53.346;-6.554;2023-11-19T12:16:20;4;1;
40371;PMS5003;28564;53.346;-6.554;2023-11-19T12:18:47;3;0;
40371;PMS5003;28564;53.346;-6.554;2023-11-19T12:21:27;0;0;
40371;PMS5003;28564;53.346;-6.554;2023-11-19T12:23:55;0;0;
40371;PMS5003;28564;53.346;-6.554;2023-11-19T12:26:40;1;1;
40371;PMS5003;28564;53.346;-6.554;2023-11-19T12:29:07;2;2;
40371;PMS5003;28564;53.346;-6.554;2023-11-19T12:31:34;2;2;
40371;PMS5003;28564;53.346;-6.554;2023-11-19T12:34:09;1;1;
40371;PMS5003;28564;53.346;-6.554;2023-11-19T12:36:36;2;2;
40371;PMS5003;28564;53.346;-6.554;2023-11-19T12:39:06;2;1;
40371;PMS5003;28564;53.346;-6.554;2023-11-19T12:41:40;2;2;
40371;PMS5003;28564;53.346;-6.554;2023-11-19T12:44:16;1;1;
40371;PMS5003;28564;53.346;-6.554;2023-11-19T12:46:43;0;0;
40371;PMS5003;28564;53.346;-6.554;2023-11-19T12:49:11;0;0;
40371;PMS5003;28564;53.346;-6.554;2023-11-19T12:51:38;1;1;
40371;PMS5003;28564;53.346;-6.554;2023-11-19T12:54:05;2;2;
40371;PMS5003;28564;53.346;-6.554;2023-11-19T12:56:32;2;2;
40371;PMS5003;28564;53.346;-6.554;2023-11-19T12:59:09;1;1;
40371;PMS5003;28564;53.346;-6.554;2023-11-19T13:01:37;3;2;
40371;PMS5003;28564;53.346;-6.554;2023-11-19T13:04:15;0;0;
40371;PMS5003;28564;53.346;-6.554;2023-11-19T13:06:44;3;2;
40371;PMS5003;28564;53.346;-6.554;2023-11-19T13:09:21;5;3;
40371;PMS5003;28564;53.346;-6.554;2023-11-19T13:11:49;4;2;
40371;PMS5003;28564;53.346;-6.554;2023-11-19T13:14:16;2;2;
40371;PMS5003;28564;53.346;-6.554;2023-11-19T13:16:43;6;4;
40371;PMS5003;28564;53.346;-6.554;2023-11-19T13:19:10;3;2;
40371;PMS5003;28564;53.346;-6.554;2023-11-19T13:21:37;5;4;
40371;PMS5003;28564;53.346;-6.554;2023-11-19T13:24:04;3;3;
40371;PMS5003;28564;53.346;-6.554;2023-11-19T13:26:32;4;3;
40371;PMS5003;28564;53.346;-6.554;2023-11-19T13:29:04;4;2;
40371;PMS5003;28564;53.346;-6.554;2023-11-19T13:31:32;4;2;
40371;PMS5003;28564;53.346;-6.554;2023-11-19T13:33:59;7;2;
40371;PMS5003;28564;53.346;-6.554;2023-11-19T13:36:26;3;1;
40371;PMS5003;28564;53.346;-6.554;2023-11-19T13:38:53;3;1;
40371;PMS5003;28564;53.346;-6.554;2023-11-19T13:41:20;9;2;
40371;PMS5003;28564;53.346;-6.554;2023-11-19T13:43:47;3;2;
40371;PMS5003;28564;53.346;-6.554;2023-11-19T13:46:14;4;3;
40371;PMS5003;28564;53.346;-6.554;2023-11-19T13:48:42;5;2;
40371;PMS5003;28564;53.346;-6.554;2023-11-19T13:51:09;4;3;
40371;PMS5003;28564;53.346;-6.554;2023-11-19T13:53:36;4;2;
40371;PMS5003;28564;53.346;-6.554;2023-11-19T13:56:03;2;2;
40371;PMS5003;28564;53.346;-6.554;2023-11-19T13:58:31;4;2;
40371;PMS5003;28564;53.346;-6.554;2023-11-19T14:00:59;2;2;
40371;PMS5003;28564;53.346;-6.554;2023-11-19T14:03:27;7;1;
40371;PMS5003;28564;53.346;-6.554;2023-11-19T14:05:54;2;0;
40371;PMS5003;28564;53.346;-6.554;2023-11-19T14:08:21;3;1;
40371;PMS5003;28564;53.346;-6.554;2023-11-19T14:10:48;2;2;
40371;PMS5003;28564;53.346;-6.554;2023-11-19T14:13:15;5;1;
40371;PMS5003;28564;53.346;-6.554;2023-11-19T14:15:42;2;1;
40371;PMS5003;28564;53.346;-6.554;2023-11-19T14:18:09;2;2;
40371;PMS5003;28564;53.346;-6.554;2023-11-19T14:20:36;3;2;
40371;PMS5003;28564;53.346;-6.554;2023-11-19T14:23:03;3;2;
40371;PMS5003;28564;53.346;-6.554;2023-11-19T14:25:31;1;1;
40371;PMS5003;28564;53.346;-6.554;2023-11-19T14:27:58;3;0;
40371;PMS5003;28564;53.346;-6.554;2023-11-19T14:30:25;1;1;
40371;PMS5003;28564;53.346;-6.554;2023-11-19T14:32:52;2;0;
40371;PMS5003;28564;53.346;-6.554;2023-11-19T14:35:19;5;2;
40371;PMS5003;28564;53.346;-6.554;2023-11-19T14:37:46;3;1;
40371;PMS5003;28564;53.346;-6.554;2023-11-19T14:40:13;1;1;
40371;PMS5003;28564;53.346;-6.554;2023-11-19T14:42:40;2;2;
40371;PMS5003;28564;53.346;-6.554;2023-11-19T14:45:08;6;1;
40371;PMS5003;28564;53.346;-6.554;2023-11-19T14:47:35;3;1;
40371;PMS5003;28564;53.346;-6.554;2023-11-19T14:50:03;1;1;
40371;PMS5003;28564;53.346;-6.554;2023-11-19T14:52:30;3;2;
40371;PMS5003;28564;53.346;-6.554;2023-11-19T14:54:58;5;3;
40371;PMS5003;28564;53.346;-6.554;2023-11-19T14:57:25;4;2;
40371;PMS5003;28564;53.346;-6.554;2023-11-19T14:59:52;2;1;
40371;PMS5003;28564;53.346;-6.554;2023-11-19T15:02:19;1;1;
40371;PMS5003;28564;53.346;-6.554;2023-11-19T15:04:46;5;1;
40371;PMS5003;28564;53.346;-6.554;2023-11-19T15:07:13;2;1;
40371;PMS5003;28564;53.346;-6.554;2023-11-19T15:09:40;4;3;
40371;PMS5003;28564;53.346;-6.554;2023-11-19T15:12:07;1;1;
40371;PMS5003;28564;53.346;-6.554;2023-11-19T15:14:35;7;4;
40371;PMS5003;28564;53.346;-6.554;2023-11-19T15:17:02;3;3;
40371;PMS5003;28564;53.346;-6.554;2023-11-19T15:19:30;5;3;
40371;PMS5003;28564;53.346;-6.554;2023-11-19T15:21:57;2;1;
40371;PMS5003;28564;53.346;-6.554;2023-11-19T15:24:24;6;3;
40371;PMS5003;28564;53.346;-6.554;2023-11-19T15:26:51;3;3;
40371;PMS5003;28564;53.346;-6.554;2023-11-19T15:29:18;3;1;
40371;PMS5003;28564;53.346;-6.554;2023-11-19T15:31:46;4;2;
40371;PMS5003;28564;53.346;-6.554;2023-11-19T15:34:13;7;3;
40371;PMS5003;28564;53.346;-6.554;2023-11-19T15:36:40;3;2;
40371;PMS5003;28564;53.346;-6.554;2023-11-19T15:39:07;6;3;
40371;PMS5003;28564;53.346;-6.554;2023-11-19T15:41:35;3;2;
40371;PMS5003;28564;53.346;-6.554;2023-11-19T15:44:02;4;2;
40371;PMS5003;28564;53.346;-6.554;2023-11-19T15:46:29;4;3;
40371;PMS5003;28564;53.346;-6.554;2023-11-19T15:48:56;5;3;
40371;PMS5003;28564;53.346;-6.554;2023-11-19T15:51:23;8;4;
40371;PMS5003;28564;53.346;-6.554;2023-11-19T15:53:50;3;1;
40371;PMS5003;28564;53.346;-6.554;2023-11-19T15:56:17;7;5;
40371;PMS5003;28564;53.346;-6.554;2023-11-19T15:58:44;4;3;
40371;PMS5003;28564;53.346;-6.554;2023-11-19T16:01:11;5;2;
40371;PMS5003;28564;53.346;-6.554;2023-11-19T16:03:38;6;2;
40371;PMS5003;28564;53.346;-6.554;2023-11-19T16:06:06;4;3;
40371;PMS5003;28564;53.346;-6.554;2023-11-19T16:08:34;6;3;
40371;PMS5003;28564;53.346;-6.554;2023-11-19T16:11:00;2;1;
40371;PMS5003;28564;53.346;-6.554;2023-11-19T16:13:28;2;2;
40371;PMS5003;28564;53.346;-6.554;2023-11-19T16:15:55;7;2;
40371;PMS5003;28564;53.346;-6.554;2023-11-19T16:18:22;7;5;
40371;PMS5003;28564;53.346;-6.554;2023-11-19T16:20:49;3;3;
40371;PMS5003;28564;53.346;-6.554;2023-11-19T16:23:17;3;3;
40371;PMS5003;28564;53.346;-6.554;2023-11-19T16:25:44;3;1;
40371;PMS5003;28564;53.346;-6.554;2023-11-19T16:28:11;3;3;
40371;PMS5003;28564;53.346;-6.554;2023-11-19T16:30:38;4;4;
40371;PMS5003;28564;53.346;-6.554;2023-11-19T16:33:05;7;3;
40371;PMS5003;28564;53.346;-6.554;2023-11-19T16:35:32;5;1;
40371;PMS5003;28564;53.346;-6.554;2023-11-19T16:37:59;5;3;
40371;PMS5003;28564;53.346;-6.554;2023-11-19T16:40:26;3;3;
40371;PMS5003;28564;53.346;-6.554;2023-11-19T16:42:53;5;1;